createdAt,value
2022-09-05T00:00:17.173Z,0.00
2022-09-05T00:01:17.150Z,0.00
2022-09-05T00:02:17.165Z,0.00
2022-09-05T00:03:17.267Z,0.00
2022-09-05T00:04:24.731Z,0.00
2022-09-05T00:05:17.069Z,0.00
2022-09-05T00:06:17.082Z,0.00
2022-09-05T00:07:57.778Z,0.00
2022-09-05T00:08:17.004Z,0.00
2022-09-05T00:09:16.984Z,0.00
2022-09-05T00:10:16.964Z,0.00
2022-09-05T00:11:39.489Z,0.00
2022-09-05T00:12:16.920Z,0.00
2022-09-05T00:13:16.896Z,0.00
2022-09-05T00:14:16.881Z,0.00
2022-09-05T00:15:18.888Z,0.00
2022-09-05T00:16:16.927Z,0.00
2022-09-05T00:17:16.812Z,0.00
2022-09-05T00:21:36.786Z,0.00
2022-09-05T00:24:17.297Z,0.00
2022-09-05T00:24:22.001Z,0.00
2022-09-05T00:24:25.768Z,0.00
2022-09-05T00:24:30.903Z,0.00
2022-09-05T00:24:31.149Z,0.00
2022-09-05T00:24:32.754Z,0.00
2022-09-05T00:25:33.061Z,0.00
2022-09-05T00:26:16.659Z,0.00
2022-09-05T00:27:16.619Z,0.00
2022-09-05T00:28:25.658Z,0.00
2022-09-05T00:29:16.574Z,0.00
2022-09-05T00:31:08.561Z,0.00
2022-09-05T00:31:55.520Z,0.00
2022-09-05T00:32:16.522Z,0.00
2022-09-05T00:33:26.678Z,0.00
2022-09-05T00:34:16.461Z,0.00
2022-09-05T00:35:16.458Z,0.00
2022-09-05T00:36:16.414Z,0.00
2022-09-05T00:37:16.485Z,0.00
2022-09-05T00:38:16.395Z,0.00
2022-09-05T00:39:16.368Z,0.00
2022-09-05T00:40:18.687Z,0.00
2022-09-05T00:41:16.329Z,0.00
2022-09-05T00:42:16.301Z,0.00
2022-09-05T00:43:16.272Z,0.00
2022-09-05T00:44:16.249Z,0.00
2022-09-05T00:45:19.897Z,0.00
2022-09-05T00:46:16.276Z,0.00
2022-09-05T00:47:16.185Z,0.00
2022-09-05T00:48:16.175Z,0.00
2022-09-05T00:49:16.145Z,0.00
2022-09-05T00:50:16.163Z,0.00
2022-09-05T00:51:16.105Z,0.00
2022-09-05T00:52:16.110Z,0.00
2022-09-05T00:53:16.062Z,0.00
2022-09-05T00:54:16.039Z,0.00
2022-09-05T00:55:16.024Z,0.00
2022-09-05T00:56:15.998Z,0.00
2022-09-05T00:57:16.312Z,0.00
2022-09-05T00:58:15.962Z,0.00
2022-09-05T00:59:15.941Z,0.00
2022-09-05T01:00:17.808Z,0.00
2022-09-05T01:01:21.457Z,0.00
2022-09-05T01:02:15.977Z,0.00
2022-09-05T01:03:15.954Z,0.00
2022-09-05T01:04:15.839Z,0.00
2022-09-05T01:05:15.812Z,0.00
2022-09-05T01:06:15.790Z,0.00
2022-09-05T01:07:15.769Z,0.00
2022-09-05T01:08:15.749Z,0.00
2022-09-05T01:09:15.728Z,0.00
2022-09-05T01:10:15.709Z,0.00
2022-09-05T01:11:15.692Z,0.00
2022-09-05T01:12:15.673Z,0.00
2022-09-05T01:13:15.645Z,0.00
2022-09-05T01:14:15.620Z,0.00
2022-09-05T01:15:15.603Z,0.00
2022-09-05T01:16:15.628Z,0.00
2022-09-05T01:17:15.559Z,0.00
2022-09-05T01:18:15.556Z,0.00
2022-09-05T01:19:16.041Z,0.00
2022-09-05T01:20:19.188Z,0.00
2022-09-05T01:21:15.473Z,0.00
2022-09-05T01:22:15.457Z,0.00
2022-09-05T01:23:15.450Z,0.00
2022-09-05T01:24:15.413Z,0.00
2022-09-05T01:25:15.414Z,0.00
2022-09-05T01:26:15.373Z,0.00
2022-09-05T01:27:15.350Z,0.00
2022-09-05T01:29:15.939Z,0.00
2022-09-05T01:29:19.354Z,0.00
2022-09-05T01:30:15.325Z,0.00
2022-09-05T01:31:15.309Z,0.00
2022-09-05T01:32:15.256Z,0.00
2022-09-05T01:33:15.222Z,0.00
2022-09-05T01:34:15.201Z,0.00
2022-09-05T01:35:15.189Z,0.00
2022-09-05T01:36:15.180Z,0.00
2022-09-05T01:37:24.821Z,0.00
2022-09-05T01:38:15.116Z,0.00
2022-09-05T01:40:14.351Z,0.00
2022-09-05T01:40:16.871Z,0.00
2022-09-05T01:41:18.434Z,0.00
2022-09-05T01:42:15.038Z,0.00
2022-09-05T01:43:15.064Z,0.00
2022-09-05T01:44:14.991Z,0.00
2022-09-05T01:45:14.968Z,0.00
2022-09-05T01:46:15.005Z,0.00
2022-09-05T01:47:14.972Z,0.00
2022-09-05T01:48:14.905Z,0.00
2022-09-05T01:49:14.885Z,0.00
2022-09-05T01:50:14.864Z,0.00
2022-09-05T01:51:28.689Z,0.00
2022-09-05T01:52:14.819Z,0.00
2022-09-05T01:53:14.803Z,0.00
2022-09-05T01:54:24.949Z,0.00
2022-09-05T01:55:14.760Z,0.00
2022-09-05T01:56:14.740Z,0.00
2022-09-05T01:57:14.719Z,0.00
2022-09-05T01:58:14.696Z,0.00
2022-09-05T01:59:14.685Z,0.00
2022-09-05T02:00:14.650Z,0.00
2022-09-05T02:01:25.356Z,0.00
2022-09-05T02:02:14.712Z,0.00
2022-09-05T02:03:14.612Z,0.00
2022-09-05T02:04:14.564Z,0.00
2022-09-05T02:05:14.564Z,0.00
2022-09-05T02:06:14.538Z,0.00
2022-09-05T02:07:20.043Z,0.00
2022-09-05T02:08:14.535Z,0.00
2022-09-05T02:09:14.471Z,0.00
2022-09-05T02:10:14.442Z,0.00
2022-09-05T02:11:14.421Z,0.00
2022-09-05T02:12:14.397Z,0.00
2022-09-05T02:13:14.377Z,0.00
2022-09-05T02:14:14.354Z,0.00
2022-09-05T02:15:14.328Z,0.00
2022-09-05T02:16:14.341Z,0.00
2022-09-05T02:17:23.621Z,0.00
2022-09-05T02:18:14.297Z,0.00
2022-09-05T02:19:14.244Z,0.00
2022-09-05T02:20:14.243Z,0.00
2022-09-05T02:21:14.211Z,0.00
2022-09-05T02:22:14.180Z,0.00
2022-09-05T02:23:40.545Z,0.00
2022-09-05T02:24:14.391Z,0.00
2022-09-05T02:25:30.561Z,0.00
2022-09-05T02:26:14.105Z,0.00
2022-09-05T02:28:03.320Z,0.00
2022-09-05T02:28:14.049Z,0.00
2022-09-05T02:29:28.928Z,0.00
2022-09-05T02:30:14.013Z,0.00
2022-09-05T02:31:19.808Z,0.00
2022-09-05T02:32:13.967Z,0.00
2022-09-05T02:33:13.950Z,0.00
2022-09-05T02:34:13.934Z,0.00
2022-09-05T02:35:14.012Z,0.00
2022-09-05T02:36:13.886Z,0.00
2022-09-05T02:37:13.862Z,0.00
2022-09-05T02:40:59.868Z,0.00
2022-09-05T02:45:01.968Z,0.00
2022-09-05T02:45:03.295Z,0.00
2022-09-05T02:45:08.518Z,0.00
2022-09-05T02:45:10.275Z,0.00
2022-09-05T02:45:10.983Z,0.00
2022-09-05T02:45:13.246Z,0.00
2022-09-05T02:45:25.453Z,0.00
2022-09-05T02:46:13.764Z,0.00
2022-09-05T02:47:13.648Z,0.00
2022-09-05T02:48:15.360Z,0.00
2022-09-05T02:49:26.176Z,0.00
2022-09-05T02:54:00.485Z,0.00
2022-09-05T02:56:38.918Z,0.00
2022-09-05T02:57:29.106Z,0.00
2022-09-05T02:57:35.418Z,0.00
2022-09-05T02:57:36.699Z,0.00
2022-09-05T02:57:36.857Z,0.00
2022-09-05T02:57:38.985Z,0.00
2022-09-05T02:57:43.274Z,0.00
2022-09-05T02:58:13.557Z,0.00
2022-09-05T02:59:13.417Z,0.00
2022-09-05T03:00:13.385Z,0.00
2022-09-05T03:01:13.394Z,0.00
2022-09-05T03:02:25.621Z,0.00
2022-09-05T03:03:13.349Z,0.00
2022-09-05T03:04:13.286Z,0.00
2022-09-05T03:05:13.266Z,0.00
2022-09-05T03:06:13.249Z,0.00
2022-09-05T03:07:13.226Z,0.00
2022-09-05T03:08:13.194Z,0.00
2022-09-05T03:09:17.446Z,0.00
2022-09-05T03:10:13.151Z,0.00
2022-09-05T03:11:13.158Z,0.00
2022-09-05T03:12:29.164Z,0.00
2022-09-05T03:13:13.090Z,0.00
2022-09-05T03:14:13.072Z,0.00
2022-09-05T03:15:18.619Z,0.00
2022-09-05T03:16:13.101Z,0.00
2022-09-05T03:17:12.999Z,0.00
2022-09-05T03:18:31.450Z,0.00
2022-09-05T03:19:12.958Z,0.00
2022-09-05T03:20:12.945Z,0.00
2022-09-05T03:21:12.918Z,0.00
2022-09-05T03:22:12.895Z,0.00
2022-09-05T03:23:12.873Z,0.00
2022-09-05T03:24:12.848Z,0.00
2022-09-05T03:25:12.851Z,0.00
2022-09-05T03:26:12.806Z,0.00
2022-09-05T03:27:12.786Z,0.00
2022-09-05T03:28:12.763Z,0.00
2022-09-05T03:29:12.746Z,0.00
2022-09-05T03:30:12.727Z,0.00
2022-09-05T03:31:22.282Z,0.00
2022-09-05T03:32:12.678Z,0.00
2022-09-05T03:33:12.651Z,0.00
2022-09-05T03:34:12.640Z,0.00
2022-09-05T03:35:12.626Z,0.00
2022-09-05T03:36:12.594Z,0.00
2022-09-05T03:37:12.570Z,0.00
2022-09-05T03:38:12.553Z,0.00
2022-09-05T03:39:12.523Z,0.00
2022-09-05T03:40:16.142Z,0.00
2022-09-05T03:41:12.492Z,0.00
2022-09-05T03:42:14.663Z,0.00
2022-09-05T03:43:12.443Z,0.00
2022-09-05T03:44:12.415Z,0.00
2022-09-05T03:45:12.414Z,0.00
2022-09-05T03:46:12.411Z,0.00
2022-09-05T03:47:12.353Z,0.00
2022-09-05T03:48:28.069Z,0.00
2022-09-05T03:50:09.502Z,0.00
2022-09-05T03:54:17.125Z,0.00
2022-09-05T03:57:05.935Z,0.00
2022-09-05T03:57:07.264Z,0.00
2022-09-05T03:57:10.415Z,0.00
2022-09-05T03:57:12.691Z,0.00
2022-09-05T03:57:18.468Z,0.00
2022-09-05T03:57:20.724Z,0.00
2022-09-05T03:57:33.834Z,0.00
2022-09-05T03:58:18.164Z,0.00
2022-09-05T03:59:12.089Z,0.00
2022-09-05T04:00:12.071Z,0.00
2022-09-05T04:02:40.390Z,0.00
2022-09-05T04:04:03.725Z,0.00
2022-09-05T04:06:44.184Z,0.00
2022-09-05T04:08:10.294Z,0.00
2022-09-05T04:08:14.409Z,0.00
2022-09-05T04:08:18.262Z,0.00
2022-09-05T04:08:18.372Z,0.00
2022-09-05T04:08:41.013Z,0.00
2022-09-05T04:09:12.039Z,0.00
2022-09-05T04:10:11.937Z,0.00
2022-09-05T04:11:11.830Z,0.00
2022-09-05T04:12:11.806Z,0.00
2022-09-05T04:13:11.790Z,0.00
2022-09-05T04:14:11.775Z,4.00
2022-09-05T04:15:11.742Z,4.00
2022-09-05T04:16:11.782Z,0.00
2022-09-05T04:17:11.700Z,4.00
2022-09-05T04:18:11.723Z,4.00
2022-09-05T04:19:11.654Z,4.00
2022-09-05T04:20:11.638Z,4.00
2022-09-05T04:21:11.624Z,4.00
2022-09-05T04:22:11.594Z,8.00
2022-09-05T04:23:11.574Z,8.00
2022-09-05T04:24:11.548Z,8.00
2022-09-05T04:25:11.542Z,12.00
2022-09-05T04:26:12.484Z,12.00
2022-09-05T04:27:11.487Z,20.00
2022-09-05T04:28:11.456Z,20.00
2022-09-05T04:29:11.445Z,24.00
2022-09-05T04:30:38.554Z,32.00
2022-09-05T04:31:11.395Z,36.00
2022-09-05T04:32:18.010Z,44.00
2022-09-05T04:33:11.353Z,52.00
2022-09-05T04:34:11.331Z,64.00
2022-09-05T04:35:11.313Z,68.00
2022-09-05T04:36:18.271Z,80.00
2022-09-05T04:37:11.298Z,96.00
2022-09-05T04:38:11.256Z,108.00
2022-09-05T04:39:11.227Z,124.00
2022-09-05T04:40:11.218Z,144.00
2022-09-05T04:41:11.183Z,164.00
2022-09-05T04:42:11.166Z,180.00
2022-09-05T04:43:11.139Z,200.00
2022-09-05T04:44:11.115Z,228.00
2022-09-05T04:45:11.112Z,256.00
2022-09-05T04:46:12.351Z,284.00
2022-09-05T04:47:11.678Z,308.00
2022-09-05T04:48:11.056Z,328.00
2022-09-05T04:49:11.011Z,344.00
2022-09-05T04:50:10.995Z,372.00
2022-09-05T04:51:12.937Z,404.00
2022-09-05T04:52:11.743Z,444.00
2022-09-05T04:53:10.927Z,480.00
2022-09-05T04:54:10.938Z,516.00
2022-09-05T04:55:10.910Z,552.00
2022-09-05T04:56:10.870Z,584.00
2022-09-05T04:57:14.308Z,604.00
2022-09-05T04:58:10.827Z,624.00
2022-09-05T05:01:40.737Z,648.00
2022-09-05T05:04:45.986Z,668.00
2022-09-05T05:06:01.348Z,688.00
2022-09-05T05:06:08.546Z,728.00
2022-09-05T05:06:13.895Z,768.00
2022-09-05T05:06:17.111Z,708.00
2022-09-05T05:06:18.515Z,744.00
2022-09-05T05:06:38.111Z,788.00
2022-09-05T05:07:10.705Z,812.00
2022-09-05T05:08:10.701Z,840.00
2022-09-05T05:09:10.660Z,868.00
2022-09-05T05:14:07.639Z,900.00
2022-09-05T05:16:13.515Z,932.00
2022-09-05T05:17:59.390Z,960.00
2022-09-05T05:18:00.195Z,1000.00
2022-09-05T05:18:08.140Z,1112.00
2022-09-05T05:18:08.469Z,1148.00
2022-09-05T05:18:11.987Z,1072.00
2022-09-05T05:18:13.402Z,1036.00
2022-09-05T05:18:36.709Z,1184.00
2022-09-05T05:19:18.647Z,1220.00
2022-09-05T05:20:42.319Z,1248.00
2022-09-05T05:21:10.457Z,1280.00
2022-09-05T05:22:10.348Z,1312.00
2022-09-05T05:23:10.296Z,1348.00
2022-09-05T05:24:10.270Z,1380.00
2022-09-05T05:25:10.304Z,1420.00
2022-09-05T05:26:10.240Z,1460.00
2022-09-05T05:27:10.215Z,1492.00
2022-09-05T05:28:24.066Z,1532.00
2022-09-05T05:29:10.165Z,1580.00
2022-09-05T05:30:10.149Z,1620.00
2022-09-05T05:31:10.196Z,1640.00
2022-09-05T05:32:10.122Z,1676.00
2022-09-05T05:33:10.100Z,1704.00
2022-09-05T05:34:16.249Z,1732.00
2022-09-05T05:35:10.035Z,1772.00
2022-09-05T05:36:10.075Z,1832.00
2022-09-05T05:37:10.093Z,1864.00
2022-09-05T05:38:09.982Z,1904.00
2022-09-05T05:39:09.958Z,1944.00
2022-09-05T05:40:10.041Z,2016.00
2022-09-05T05:41:09.963Z,2072.00
2022-09-05T05:42:20.366Z,2116.00
2022-09-05T05:43:09.898Z,2156.00
2022-09-05T05:44:09.856Z,2200.00
2022-09-05T05:45:09.833Z,2240.00
2022-09-05T05:46:09.847Z,2280.00
2022-09-05T05:47:09.785Z,2324.00
2022-09-05T05:48:09.766Z,2388.00
2022-09-05T05:49:09.757Z,2476.00
2022-09-05T05:50:11.791Z,2540.00
2022-09-05T05:51:09.705Z,2604.00
2022-09-05T05:52:09.730Z,2644.00
2022-09-05T05:53:09.659Z,2672.00
2022-09-05T05:54:09.794Z,2700.00
2022-09-05T05:55:34.005Z,2748.00
2022-09-05T05:56:09.647Z,2780.00
2022-09-05T05:57:10.096Z,2848.00
2022-09-05T05:58:09.603Z,2900.00
2022-09-05T05:59:09.683Z,2952.00
2022-09-05T06:00:13.425Z,3020.00
2022-09-05T06:01:27.381Z,3096.00
2022-09-05T06:02:09.602Z,3228.00
2022-09-05T06:03:26.002Z,3396.00
2022-09-05T06:04:09.456Z,3484.00
2022-09-05T06:05:09.473Z,3516.00
2022-09-05T06:06:09.501Z,3568.00
2022-09-05T06:07:10.106Z,3496.00
2022-09-05T06:12:01.172Z,3372.00
2022-09-05T06:12:46.329Z,3364.00
2022-09-05T06:14:48.174Z,3336.00
2022-09-05T06:14:58.871Z,3004.00
2022-09-05T06:15:00.722Z,3008.00
2022-09-05T06:15:01.180Z,2992.00
2022-09-05T06:15:01.181Z,3180.00
2022-09-05T06:15:12.103Z,2992.00
2022-09-05T06:16:09.278Z,2992.00
2022-09-05T06:17:09.172Z,2892.00
2022-09-05T06:18:09.156Z,2792.00
2022-09-05T06:19:09.132Z,2744.00
2022-09-05T06:22:04.357Z,2732.00
2022-09-05T06:22:08.299Z,2756.00
2022-09-05T06:22:14.080Z,2912.00
2022-09-05T06:23:27.530Z,3636.00
2022-09-05T06:24:09.028Z,4280.00
2022-09-05T06:25:16.962Z,4580.00
2022-09-05T06:26:08.996Z,4500.00
2022-09-05T06:27:08.966Z,4160.00
2022-09-05T06:28:19.733Z,3160.00
2022-09-05T06:29:08.931Z,3080.00
2022-09-05T06:30:08.954Z,2960.00
2022-09-05T06:31:29.332Z,3072.00
2022-09-05T06:32:08.906Z,3104.00
2022-09-05T06:33:08.857Z,3056.00
2022-09-05T06:34:17.078Z,3084.00
2022-09-05T06:35:08.812Z,3024.00
2022-09-05T06:36:08.808Z,3160.00
2022-09-05T06:37:08.816Z,3464.00
2022-09-05T06:38:08.758Z,3216.00
2022-09-05T06:39:08.743Z,3016.00
2022-09-05T06:40:08.864Z,3020.00
2022-09-05T06:41:08.697Z,3204.00
2022-09-05T06:42:08.678Z,3456.00
2022-09-05T06:43:08.674Z,3556.00
2022-09-05T06:44:08.651Z,3764.00
2022-09-05T06:45:27.396Z,4020.00
2022-09-05T06:46:08.645Z,4392.00
2022-09-05T06:47:30.229Z,4688.00
2022-09-05T06:48:08.566Z,4764.00
2022-09-05T06:49:30.091Z,4624.00
2022-09-05T06:50:27.615Z,4444.00
2022-09-05T06:51:09.073Z,4316.00
2022-09-05T06:52:08.497Z,4192.00
2022-09-05T06:53:19.833Z,4176.00
2022-09-05T06:54:08.452Z,4264.00
2022-09-05T06:55:08.441Z,4456.00
2022-09-05T06:56:08.421Z,4524.00
2022-09-05T06:57:08.392Z,4636.00
2022-09-05T06:58:08.387Z,4844.00
2022-09-05T06:59:09.933Z,5032.00
2022-09-05T07:00:15.576Z,5336.00
2022-09-05T07:01:08.812Z,5884.00
2022-09-05T07:02:08.519Z,6348.00
2022-09-05T07:03:08.309Z,6716.00
2022-09-05T07:04:33.405Z,6892.00
2022-09-05T07:05:37.406Z,7296.00
2022-09-05T07:06:08.261Z,7380.00
2022-09-05T07:07:08.215Z,7248.00
2022-09-05T07:08:26.724Z,7492.00
2022-09-05T07:09:08.525Z,7860.00
2022-09-05T07:10:34.681Z,8088.00
2022-09-05T07:11:16.013Z,8192.00
2022-09-05T07:12:08.129Z,7616.00
2022-09-05T07:13:08.108Z,7048.00
2022-09-05T07:14:08.118Z,6736.00
2022-09-05T07:15:08.702Z,6664.00
2022-09-05T07:16:08.095Z,6732.00
2022-09-05T07:17:08.065Z,6788.00
2022-09-05T07:18:10.960Z,6728.00
2022-09-05T07:19:08.010Z,6848.00
2022-09-05T07:20:08.006Z,7016.00
2022-09-05T07:21:17.849Z,7284.00
2022-09-05T07:22:29.386Z,7336.00
2022-09-05T07:24:06.563Z,7592.00
2022-09-05T07:24:10.094Z,8040.00
2022-09-05T07:25:08.752Z,8356.00
2022-09-05T07:26:07.910Z,8792.00
2022-09-05T07:27:09.022Z,8748.00
2022-09-05T07:28:29.403Z,7860.00
2022-09-05T07:29:09.745Z,7516.00
2022-09-05T07:30:07.881Z,7188.00
2022-09-05T07:31:07.949Z,6812.00
2022-09-05T07:32:07.878Z,7060.00
2022-09-05T07:33:07.794Z,7208.00
2022-09-05T07:34:20.644Z,7460.00
2022-09-05T07:35:07.800Z,7252.00
2022-09-05T07:36:07.755Z,6964.00
2022-09-05T07:37:14.915Z,6808.00
2022-09-05T07:38:07.733Z,6944.00
2022-09-05T07:39:27.624Z,7048.00
2022-09-05T07:40:23.298Z,6636.00
2022-09-05T07:41:07.725Z,7052.00
2022-09-05T07:42:07.660Z,6840.00
2022-09-05T07:43:09.544Z,6284.00
2022-09-05T07:44:07.623Z,6176.00
2022-09-05T07:45:07.611Z,5960.00
2022-09-05T07:46:07.641Z,6020.00
2022-09-05T07:47:07.588Z,6140.00
2022-09-05T07:48:07.589Z,6108.00
2022-09-05T07:49:07.557Z,5928.00
2022-09-05T07:52:43.104Z,5692.00
2022-09-05T07:56:49.196Z,5604.00
2022-09-05T07:56:50.090Z,5552.00
2022-09-05T07:57:01.604Z,5540.00
2022-09-05T07:57:02.366Z,5704.00
2022-09-05T07:57:04.918Z,5572.00
2022-09-05T07:57:10.464Z,5600.00
2022-09-05T07:58:07.432Z,5888.00
2022-09-05T07:59:07.428Z,5996.00
2022-09-05T08:00:07.419Z,6108.00
2022-09-05T08:01:07.734Z,6220.00
2022-09-05T08:02:07.383Z,6344.00
2022-09-05T08:03:07.373Z,6488.00
2022-09-05T08:04:07.361Z,6728.00
2022-09-05T08:05:07.399Z,6956.00
2022-09-05T08:06:07.341Z,7156.00
2022-09-05T08:07:47.374Z,7420.00
2022-09-05T08:08:07.310Z,7676.00
2022-09-05T08:10:07.032Z,8108.00
2022-09-05T08:10:09.714Z,8604.00
2022-09-05T08:11:24.138Z,8896.00
2022-09-05T08:12:09.607Z,9080.00
2022-09-05T08:13:23.449Z,9160.00
2022-09-05T08:14:44.033Z,9248.00
2022-09-05T08:15:10.239Z,9576.00
2022-09-05T08:16:10.509Z,10176.00
2022-09-05T08:17:07.218Z,11076.00
2022-09-05T08:18:07.199Z,12248.00
2022-09-05T08:19:07.182Z,13472.00
2022-09-05T08:20:08.888Z,14664.00
2022-09-05T08:21:07.219Z,16276.00
2022-09-05T08:22:07.150Z,18560.00
2022-09-05T08:23:07.146Z,15640.00
2022-09-05T08:24:12.975Z,15520.00
2022-09-05T08:25:07.140Z,14456.00
2022-09-05T08:26:07.114Z,14196.00
2022-09-05T08:27:16.318Z,12836.00
2022-09-05T08:28:07.087Z,13216.00
2022-09-05T08:29:07.321Z,13588.00
2022-09-05T08:30:26.154Z,12920.00
2022-09-05T08:31:07.079Z,11888.00
2022-09-05T08:32:07.090Z,14144.00
2022-09-05T08:33:11.048Z,12776.00
2022-09-05T08:34:07.033Z,18080.00
2022-09-05T08:35:07.023Z,13172.00
2022-09-05T08:36:07.017Z,13388.00
2022-09-05T08:37:07.001Z,12796.00
2022-09-05T08:38:06.992Z,18496.00
2022-09-05T08:39:06.992Z,17408.00
2022-09-05T08:40:10.523Z,18688.00
2022-09-05T08:41:06.966Z,13976.00
2022-09-05T08:42:06.957Z,19040.00
2022-09-05T08:46:17.008Z,18976.00
2022-09-05T08:46:37.465Z,19072.00
2022-09-05T08:46:40.232Z,19392.00
2022-09-05T08:46:47.411Z,20256.00
2022-09-05T08:47:06.950Z,20896.00
2022-09-05T08:48:06.955Z,22080.00
2022-09-05T08:49:11.450Z,23488.00
2022-09-05T08:50:06.888Z,25216.00
2022-09-05T08:51:06.912Z,27520.00
2022-09-05T08:52:06.859Z,30464.00
2022-09-05T08:53:28.418Z,33696.00
2022-09-05T08:54:06.842Z,36864.00
2022-09-05T08:55:07.706Z,39616.00
2022-09-05T08:56:06.839Z,41728.00
2022-09-05T08:57:06.831Z,44832.00
2022-09-05T08:58:06.823Z,46944.00
2022-09-05T08:59:31.654Z,48704.00
2022-09-05T09:00:19.129Z,50400.00
2022-09-05T09:01:06.839Z,51776.00
2022-09-05T09:02:46.125Z,52736.00
2022-09-05T09:03:06.866Z,53952.00
2022-09-05T09:04:11.431Z,55104.00
2022-09-05T09:05:06.745Z,56288.00
2022-09-05T09:06:14.241Z,57024.00
2022-09-05T09:07:47.183Z,58240.00
2022-09-05T09:08:06.727Z,59072.00
2022-09-05T09:09:06.714Z,60000.00
2022-09-05T09:10:06.702Z,60320.00
2022-09-05T09:11:06.701Z,60864.00
2022-09-05T09:12:06.686Z,61312.00
2022-09-05T09:13:06.686Z,61504.00
2022-09-05T09:14:06.674Z,62592.00
2022-09-05T09:15:06.738Z,63456.00
2022-09-05T09:16:06.840Z,63776.00
2022-09-05T09:17:06.718Z,64192.00
2022-09-05T09:18:06.655Z,64896.00
2022-09-05T09:19:06.634Z,65344.00
2022-09-05T09:20:06.638Z,65472.00
2022-09-05T09:21:06.625Z,65664.00
2022-09-05T09:22:06.599Z,66304.00
2022-09-05T09:23:06.715Z,66752.00
2022-09-05T09:24:06.584Z,66880.00
2022-09-05T09:25:14.263Z,67456.00
2022-09-05T09:26:06.561Z,67776.00
2022-09-05T09:27:06.569Z,68128.00
2022-09-05T09:28:45.126Z,68256.00
2022-09-05T09:29:06.548Z,68640.00
2022-09-05T09:30:06.530Z,68768.00
2022-09-05T09:31:06.552Z,68832.00
2022-09-05T09:32:06.509Z,69184.00
2022-09-05T09:33:06.532Z,69120.00
2022-09-05T09:34:06.553Z,69312.00
2022-09-05T09:35:06.483Z,68768.00
2022-09-05T09:36:08.217Z,69024.00
2022-09-05T09:37:06.479Z,69536.00
2022-09-05T09:38:06.476Z,69184.00
2022-09-05T09:39:21.521Z,68896.00
2022-09-05T09:40:06.472Z,69088.00
2022-09-05T09:41:06.428Z,69248.00
2022-09-05T09:42:06.431Z,69344.00
2022-09-05T09:43:07.207Z,69472.00
2022-09-05T09:44:06.432Z,69888.00
2022-09-05T09:45:27.722Z,69632.00
2022-09-05T09:46:06.425Z,69888.00
2022-09-05T09:47:06.385Z,70944.00
2022-09-05T09:48:06.371Z,72256.00
2022-09-05T09:49:22.677Z,73952.00
2022-09-05T09:50:06.358Z,79552.00
2022-09-05T09:51:06.344Z,65024.00
2022-09-05T09:52:06.333Z,81568.00
2022-09-05T09:53:06.331Z,79360.00
2022-09-05T09:54:06.318Z,20000.00
2022-09-05T09:55:06.311Z,14992.00
2022-09-05T09:56:06.929Z,13548.00
2022-09-05T09:57:06.298Z,14276.00
2022-09-05T09:58:06.295Z,14480.00
2022-09-05T09:59:06.275Z,13108.00
2022-09-05T10:00:06.274Z,11644.00
2022-09-05T10:01:21.516Z,11628.00
2022-09-05T10:02:15.630Z,11952.00
2022-09-05T10:05:25.421Z,11840.00
2022-09-05T10:10:33.406Z,11848.00
2022-09-05T10:10:35.975Z,12400.00
2022-09-05T10:10:45.151Z,13004.00
2022-09-05T10:10:46.908Z,17152.00
2022-09-05T10:10:49.907Z,10772.00
2022-09-05T10:10:54.452Z,10868.00
2022-09-05T10:11:09.533Z,12200.00
2022-09-05T10:12:06.892Z,10696.00
2022-09-05T10:13:08.006Z,9944.00
2022-09-05T10:14:06.152Z,9820.00
2022-09-05T10:15:30.466Z,10032.00
2022-09-05T10:16:07.507Z,10484.00
2022-09-05T10:17:06.130Z,10952.00
2022-09-05T10:18:06.117Z,11076.00
2022-09-05T10:19:06.117Z,10352.00
2022-09-05T10:20:10.141Z,9724.00
2022-09-05T10:21:15.313Z,10056.00
2022-09-05T10:23:06.067Z,10112.00
2022-09-05T10:24:06.074Z,10412.00
2022-09-05T10:25:18.580Z,11560.00
2022-09-05T10:26:06.054Z,13208.00
2022-09-05T10:27:06.026Z,15504.00
2022-09-05T10:28:06.043Z,17696.00
2022-09-05T10:29:36.866Z,17824.00
2022-09-05T10:30:06.015Z,17888.00
2022-09-05T10:33:17.002Z,17504.00
2022-09-05T10:33:33.766Z,16036.00
2022-09-05T10:35:08.326Z,14580.00
2022-09-05T10:35:19.948Z,12864.00
2022-09-05T10:35:21.133Z,12308.00
2022-09-05T10:36:05.966Z,11996.00
2022-09-05T10:37:05.932Z,11800.00
2022-09-05T10:38:07.752Z,11900.00
2022-09-05T10:39:05.914Z,12356.00
2022-09-05T10:40:05.947Z,12664.00
2022-09-05T10:41:21.360Z,12988.00
2022-09-05T10:42:05.916Z,13524.00
2022-09-05T10:43:05.878Z,14824.00
2022-09-05T10:44:05.864Z,81248.00
2022-09-05T10:45:05.883Z,67584.00
2022-09-05T10:46:05.924Z,73184.00
2022-09-05T10:47:05.872Z,17416.00
2022-09-05T10:48:13.728Z,15680.00
2022-09-05T10:49:05.832Z,17052.00
2022-09-05T10:50:05.820Z,16440.00
2022-09-05T10:51:05.826Z,17600.00
2022-09-05T10:52:18.413Z,18880.00
2022-09-05T10:53:05.795Z,21024.00
2022-09-05T10:54:05.796Z,20320.00
2022-09-05T10:55:14.091Z,21472.00
2022-09-05T10:56:05.756Z,23808.00
2022-09-05T10:57:05.754Z,81152.00
2022-09-05T10:58:05.764Z,84992.00
2022-09-05T11:02:16.194Z,17792.00
2022-09-05T11:02:22.589Z,30048.00
2022-09-05T11:02:24.099Z,16808.00
2022-09-05T11:02:29.326Z,16136.00
2022-09-05T11:03:05.771Z,15300.00
2022-09-05T11:04:05.797Z,14408.00
2022-09-05T11:05:05.756Z,13984.00
2022-09-05T11:06:09.507Z,13504.00
2022-09-05T11:07:05.669Z,14044.00
2022-09-05T11:08:05.653Z,18592.00
2022-09-05T11:09:05.654Z,49280.00
2022-09-05T11:10:05.640Z,36000.00
2022-09-05T11:11:05.626Z,38304.00
2022-09-05T11:12:05.617Z,68544.00
2022-09-05T11:13:05.615Z,83456.00
2022-09-05T11:14:05.714Z,84448.00
2022-09-05T11:15:05.631Z,82208.00
2022-09-05T11:16:06.830Z,82912.00
2022-09-05T11:17:05.619Z,81568.00
2022-09-05T11:18:05.582Z,42656.00
2022-09-05T11:19:05.595Z,36608.00
2022-09-05T11:20:05.569Z,85504.00
2022-09-05T11:21:05.550Z,66368.00
2022-09-05T11:22:23.833Z,79744.00
2022-09-05T11:23:05.538Z,54368.00
2022-09-05T11:24:05.532Z,77952.00
2022-09-05T11:25:05.540Z,22048.00
2022-09-05T11:26:05.583Z,13948.00
2022-09-05T11:27:23.672Z,15192.00
2022-09-05T11:28:05.560Z,76192.00
2022-09-05T11:29:05.536Z,50880.00
2022-09-05T11:30:05.513Z,77216.00
2022-09-05T11:31:05.525Z,77536.00
2022-09-05T11:34:02.836Z,79808.00
2022-09-05T11:36:56.500Z,34016.00
2022-09-05T11:39:26.298Z,12356.00
2022-09-05T11:39:57.724Z,11464.00
2022-09-05T11:39:58.480Z,11904.00
2022-09-05T11:40:02.600Z,28768.00
2022-09-05T11:40:05.509Z,25440.00
2022-09-05T11:40:08.558Z,11660.00
2022-09-05T11:40:30.123Z,77888.00
2022-09-05T11:41:11.852Z,71648.00
2022-09-05T11:42:05.513Z,81664.00
2022-09-05T11:43:05.418Z,72576.00
2022-09-05T11:44:25.758Z,73600.00
2022-09-05T11:45:05.411Z,43168.00
2022-09-05T11:46:05.484Z,81792.00
2022-09-05T11:47:14.277Z,77216.00
2022-09-05T11:48:05.421Z,80768.00
2022-09-05T11:49:05.392Z,80128.00
2022-09-05T11:50:08.860Z,76448.00
2022-09-05T11:51:05.402Z,74368.00
2022-09-05T11:52:05.396Z,70912.00
2022-09-05T11:53:05.421Z,73024.00
2022-09-05T11:54:05.416Z,72480.00
2022-09-05T11:55:05.382Z,71648.00
2022-09-05T11:56:05.388Z,73568.00
2022-09-05T11:57:33.920Z,72128.00
2022-09-05T11:58:19.937Z,70912.00
2022-09-05T11:59:05.388Z,70592.00
2022-09-05T12:00:09.277Z,68928.00
2022-09-05T12:01:41.961Z,66592.00
2022-09-05T12:02:17.076Z,64416.00
2022-09-05T12:03:05.380Z,62624.00
2022-09-05T12:04:08.539Z,61184.00
2022-09-05T12:05:50.018Z,60000.00
2022-09-05T12:06:05.413Z,58912.00
2022-09-05T12:07:15.562Z,58176.00
2022-09-05T12:08:05.448Z,57152.00
2022-09-05T12:09:06.252Z,56000.00
2022-09-05T12:10:05.398Z,55008.00
2022-09-05T12:11:05.386Z,38784.00
2022-09-05T12:12:05.369Z,50560.00
2022-09-05T12:13:05.366Z,49312.00
2022-09-05T12:14:17.057Z,48480.00
2022-09-05T12:15:07.254Z,47680.00
2022-09-05T12:16:08.424Z,46496.00
2022-09-05T12:17:06.533Z,45184.00
2022-09-05T12:19:19.367Z,42880.00
2022-09-05T12:20:05.398Z,41472.00
2022-09-05T12:22:09.832Z,39360.00
2022-09-05T12:23:05.411Z,38176.00
2022-09-05T12:25:23.591Z,37280.00
2022-09-05T12:26:02.865Z,36192.00
2022-09-05T12:27:38.656Z,35392.00
2022-09-05T12:27:40.544Z,35136.00
2022-09-05T12:29:26.087Z,24768.00
2022-09-05T12:29:32.676Z,9900.00